createdAt,value
2023-05-05T00:00:51.000Z,13.8
2023-05-05T00:01:57.000Z,12.8
2023-05-05T00:04:09.000Z,13.2
2023-05-05T00:05:14.000Z,12.8
2023-05-05T00:06:20.000Z,13.5
2023-05-05T00:07:26.000Z,13.2
2023-05-05T00:08:32.000Z,13.2
2023-05-05T00:09:38.000Z,13.2
2023-05-05T00:10:44.000Z,12.8
2023-05-05T00:11:49.000Z,12.8
2023-05-05T00:12:55.000Z,13.2
2023-05-05T00:14:01.000Z,12.8
2023-05-05T00:15:08.000Z,13.2
2023-05-05T00:17:20.000Z,13.5
2023-05-05T00:18:26.000Z,13.2
2023-05-05T00:19:32.000Z,13.2
2023-05-05T00:20:38.000Z,13.5
2023-05-05T00:21:44.000Z,12.8
2023-05-05T00:22:50.000Z,13.2
2023-05-05T00:23:56.000Z,14.1
2023-05-05T00:25:02.000Z,13.2
2023-05-05T00:26:08.000Z,13.2
2023-05-05T00:27:13.000Z,12.5
2023-05-05T00:28:19.000Z,12.8
2023-05-05T00:29:25.000Z,13.2
2023-05-05T00:30:31.000Z,13.2
2023-05-05T00:31:37.000Z,13.5
2023-05-05T00:32:43.000Z,12.8
2023-05-05T00:33:48.000Z,12.8
2023-05-05T00:34:54.000Z,13.2
2023-05-05T00:36:00.000Z,13.5
2023-05-05T00:37:06.000Z,12.5
2023-05-05T00:38:12.000Z,12.8
2023-05-05T00:39:18.000Z,13.2
2023-05-05T00:40:24.000Z,13.5
2023-05-05T00:41:30.000Z,12.8
2023-05-05T00:42:36.000Z,12.8
2023-05-05T00:43:43.000Z,13.2
2023-05-05T00:44:49.000Z,12.8
2023-05-05T00:45:55.000Z,12.2
2023-05-05T00:47:01.000Z,13.2
2023-05-05T00:48:07.000Z,13.5
2023-05-05T00:49:12.000Z,12.8
2023-05-05T00:50:18.000Z,12.8
2023-05-05T00:51:24.000Z,12.5
2023-05-05T00:52:30.000Z,12.2
2023-05-05T00:53:36.000Z,13.8
2023-05-05T00:54:42.000Z,13.2
2023-05-05T00:55:48.000Z,13.2
2023-05-05T00:56:54.000Z,13.2
2023-05-05T00:58:01.000Z,13.5
2023-05-05T00:59:07.000Z,13.5
2023-05-05T01:00:13.000Z,13.2
2023-05-05T01:01:19.000Z,12.5
2023-05-05T01:02:25.000Z,12.8
2023-05-05T01:03:31.000Z,12.8
2023-05-05T01:04:37.000Z,13.8
2023-05-05T01:05:43.000Z,12.8
2023-05-05T01:06:48.000Z,12.8
2023-05-05T01:07:54.000Z,13.2
2023-05-05T01:09:00.000Z,12.2
2023-05-05T01:10:06.000Z,13.2
2023-05-05T01:11:12.000Z,13.5
2023-05-05T01:12:18.000Z,12.8
2023-05-05T01:13:25.000Z,12.8
2023-05-05T01:14:31.000Z,13.5
2023-05-05T01:15:37.000Z,12.5
2023-05-05T01:16:43.000Z,13.5
2023-05-05T01:17:49.000Z,12.8
2023-05-05T01:18:55.000Z,12.8
2023-05-05T01:20:01.000Z,13.2
2023-05-05T01:21:07.000Z,13.5
2023-05-05T01:22:12.000Z,13.5
2023-05-05T01:23:18.000Z,13.2
2023-05-05T01:24:24.000Z,12.5
2023-05-05T01:25:30.000Z,13.2
2023-05-05T01:26:36.000Z,13.2
2023-05-05T01:27:42.000Z,13.5
2023-05-05T01:28:49.000Z,12.8
2023-05-05T01:29:55.000Z,13.8
2023-05-05T01:31:01.000Z,12.5
2023-05-05T01:33:13.000Z,11.9
2023-05-05T01:34:19.000Z,12.5
2023-05-05T01:35:25.000Z,13.2
2023-05-05T01:36:31.000Z,12.8
2023-05-05T01:37:37.000Z,12.8
2023-05-05T01:38:43.000Z,13.5
2023-05-05T01:39:48.000Z,13.2
2023-05-05T01:40:55.000Z,12.8
2023-05-05T01:42:01.000Z,13.5
2023-05-05T01:43:07.000Z,12.5
2023-05-05T01:44:13.000Z,13.5
2023-05-05T01:45:19.000Z,12.8
2023-05-05T01:46:25.000Z,13.5
2023-05-05T01:47:31.000Z,13.5
2023-05-05T01:48:37.000Z,12.8
2023-05-05T01:49:43.000Z,13.2
2023-05-05T01:50:49.000Z,13.2
2023-05-05T01:51:55.000Z,12.2
2023-05-05T01:53:01.000Z,12.2
2023-05-05T01:54:07.000Z,12.5
2023-05-05T01:55:12.000Z,12.8
2023-05-05T01:56:19.000Z,12.5
2023-05-05T01:57:25.000Z,13.2
2023-05-05T01:58:31.000Z,12.8
2023-05-05T01:59:37.000Z,12.8
2023-05-05T02:00:43.000Z,13.5
2023-05-05T02:01:49.000Z,12.8
2023-05-05T02:02:55.000Z,12.5
2023-05-05T02:04:00.000Z,12.8
2023-05-05T02:05:06.000Z,12.8
2023-05-05T02:06:12.000Z,12.8
2023-05-05T02:07:18.000Z,12.8
2023-05-05T02:08:24.000Z,12.8
2023-05-05T02:09:30.000Z,13.2
2023-05-05T02:10:37.000Z,13.2
2023-05-05T02:11:43.000Z,12.8
2023-05-05T02:12:49.000Z,12.5
2023-05-05T02:13:55.000Z,12.8
2023-05-05T02:15:01.000Z,13.5
2023-05-05T02:16:07.000Z,13.2
2023-05-05T02:17:13.000Z,12.2
2023-05-05T02:18:19.000Z,12.2
2023-05-05T02:19:24.000Z,12.5
2023-05-05T02:20:30.000Z,12.8
2023-05-05T02:21:36.000Z,13.8
2023-05-05T02:22:42.000Z,12.5
2023-05-05T02:24:55.000Z,12.5
2023-05-05T02:28:13.000Z,12.8
2023-05-05T02:29:19.000Z,13.5
2023-05-05T02:30:24.000Z,12.2
2023-05-05T02:31:30.000Z,12.2
2023-05-05T02:32:36.000Z,12.8
2023-05-05T02:33:42.000Z,12.5
2023-05-05T02:34:47.000Z,11.9
2023-05-05T02:35:53.000Z,12.8
2023-05-05T02:36:59.000Z,12.8
2023-05-05T02:38:06.000Z,12.5
2023-05-05T02:39:12.000Z,13.2
2023-05-05T02:40:18.000Z,12.5
2023-05-05T02:42:30.000Z,12.5
2023-05-05T02:44:42.000Z,11.9
2023-05-05T02:45:47.000Z,12.8
2023-05-05T02:46:52.000Z,12.2
2023-05-05T02:47:58.000Z,12.5
2023-05-05T02:50:10.000Z,12.8
2023-05-05T02:51:16.000Z,13.2
2023-05-05T02:52:22.000Z,12.2
2023-05-05T02:53:29.000Z,12.2
2023-05-05T02:54:35.000Z,12.5
2023-05-05T02:55:41.000Z,12.5
2023-05-05T02:56:47.000Z,12.8
2023-05-05T02:57:53.000Z,12.5
2023-05-05T02:58:59.000Z,12.8
2023-05-05T03:00:05.000Z,12.8
2023-05-05T03:01:10.000Z,13.2
2023-05-05T03:02:16.000Z,12.2
2023-05-05T03:03:22.000Z,11.9
2023-05-05T03:04:28.000Z,13.5
2023-05-05T03:05:35.000Z,12.5
2023-05-05T03:06:41.000Z,12.8
2023-05-05T03:07:47.000Z,13.5
2023-05-05T03:08:53.000Z,12.5
2023-05-05T03:09:58.000Z,13.2
2023-05-05T03:11:04.000Z,12.8
2023-05-05T03:13:15.000Z,13.5
2023-05-05T03:14:21.000Z,12.5
2023-05-05T03:15:27.000Z,12.5
2023-05-05T03:16:33.000Z,12.2
2023-05-05T03:17:39.000Z,12.5
2023-05-05T03:18:45.000Z,12.5
2023-05-05T03:19:52.000Z,12.8
2023-05-05T03:20:58.000Z,12.2
2023-05-05T03:23:10.000Z,12.5
2023-05-05T03:24:16.000Z,12.2
2023-05-05T03:25:21.000Z,13.2
2023-05-05T03:26:27.000Z,12.5
2023-05-05T03:27:33.000Z,13.2
2023-05-05T03:28:39.000Z,12.5
2023-05-05T03:30:50.000Z,12.5
2023-05-05T03:31:56.000Z,12.5
2023-05-05T03:34:09.000Z,12.8
2023-05-05T03:35:15.000Z,12.8
2023-05-05T03:37:27.000Z,12.5
2023-05-05T03:38:33.000Z,12.5
2023-05-05T03:39:39.000Z,13.2
2023-05-05T03:41:51.000Z,12.5
2023-05-05T03:42:57.000Z,12.2
2023-05-05T03:44:03.000Z,12.2
2023-05-05T03:45:08.000Z,12.2
2023-05-05T03:46:14.000Z,12.5
2023-05-05T03:47:21.000Z,12.2
2023-05-05T03:48:27.000Z,12.8
2023-05-05T03:49:33.000Z,11.9
2023-05-05T03:50:39.000Z,12.5
2023-05-05T03:51:45.000Z,12.8
2023-05-05T03:52:51.000Z,12.2
2023-05-05T03:53:57.000Z,12.8
2023-05-05T03:55:03.000Z,12.5
2023-05-05T03:56:09.000Z,11.9
2023-05-05T03:57:15.000Z,12.5
2023-05-05T03:58:21.000Z,12.8
2023-05-05T03:59:27.000Z,12.5
2023-05-05T04:00:33.000Z,12.5
2023-05-05T04:01:39.000Z,11.6
2023-05-05T04:02:45.000Z,12.8
2023-05-05T04:03:51.000Z,12.5
2023-05-05T04:04:56.000Z,12.2
2023-05-05T04:06:02.000Z,11.9
2023-05-05T04:07:08.000Z,11.6
2023-05-05T04:08:14.000Z,12.8
2023-05-05T04:09:20.000Z,12.2
2023-05-05T04:10:26.000Z,12.8
2023-05-05T04:11:32.000Z,12.2
2023-05-05T04:12:38.000Z,12.5
2023-05-05T04:13:45.000Z,11.9
2023-05-05T04:14:51.000Z,12.5
2023-05-05T04:15:56.000Z,12.8
2023-05-05T04:18:08.000Z,12.8
2023-05-05T04:19:14.000Z,11.9
2023-05-05T04:20:19.000Z,12.5
2023-05-05T04:21:25.000Z,12.8
2023-05-05T04:22:31.000Z,11.2
2023-05-05T04:23:37.000Z,12.2
2023-05-05T04:24:43.000Z,12.2
2023-05-05T04:25:49.000Z,12.5
2023-05-05T04:26:55.000Z,12.8
2023-05-05T04:28:01.000Z,11.6
2023-05-05T04:29:08.000Z,12.5
2023-05-05T04:30:14.000Z,12.8
2023-05-05T04:31:20.000Z,11.9
2023-05-05T04:32:26.000Z,12.5
2023-05-05T04:33:32.000Z,12.5
2023-05-05T04:34:38.000Z,12.2
2023-05-05T04:35:43.000Z,11.9
2023-05-05T04:36:49.000Z,12.2
2023-05-05T04:37:55.000Z,12.2
2023-05-05T04:39:01.000Z,11.6
2023-05-05T04:41:13.000Z,12.2
2023-05-05T04:42:19.000Z,11.9
2023-05-05T04:43:25.000Z,11.6
2023-05-05T04:44:32.000Z,12.2
2023-05-05T04:45:38.000Z,13.2
2023-05-05T04:46:44.000Z,12.2
2023-05-05T04:47:50.000Z,12.8
2023-05-05T04:48:56.000Z,12.2
2023-05-05T04:50:02.000Z,11.9
2023-05-05T04:51:07.000Z,12.2
2023-05-05T04:52:13.000Z,12.2
2023-05-05T04:53:19.000Z,12.2
2023-05-05T04:54:25.000Z,12.2
2023-05-05T04:55:31.000Z,12.8
2023-05-05T04:56:37.000Z,12.5
2023-05-05T04:57:44.000Z,11.6
2023-05-05T04:58:50.000Z,12.2
2023-05-05T04:59:56.000Z,12.2
2023-05-05T05:01:02.000Z,13.2
2023-05-05T05:02:08.000Z,13.5
2023-05-05T05:04:20.000Z,12.8
2023-05-05T05:05:26.000Z,12.2
2023-05-05T05:06:32.000Z,12.5
2023-05-05T05:07:38.000Z,12.5
2023-05-05T05:08:43.000Z,12.5
2023-05-05T05:09:49.000Z,12.2
2023-05-05T05:10:55.000Z,11.2
2023-05-05T05:13:08.000Z,12.2
2023-05-05T05:14:14.000Z,12.5
2023-05-05T05:15:20.000Z,12.8
2023-05-05T05:16:26.000Z,12.2
2023-05-05T05:17:32.000Z,12.2
2023-05-05T05:18:38.000Z,11.6
2023-05-05T05:19:44.000Z,12.8
2023-05-05T05:23:02.000Z,11.9
2023-05-05T05:25:13.000Z,12.5
2023-05-05T05:26:19.000Z,12.8
2023-05-05T05:27:25.000Z,12.5
2023-05-05T05:28:31.000Z,11.6
2023-05-05T05:29:37.000Z,12.2
2023-05-05T05:30:42.000Z,12.8
2023-05-05T05:32:54.000Z,12.5
2023-05-05T05:34:00.000Z,11.6
2023-05-05T05:35:06.000Z,12.2
2023-05-05T05:36:12.000Z,12.2
2023-05-05T05:37:18.000Z,11.6
2023-05-05T05:38:25.000Z,13.2
2023-05-05T05:40:37.000Z,12.2
2023-05-05T05:41:42.000Z,12.8
2023-05-05T05:42:48.000Z,12.2
2023-05-05T05:43:53.000Z,12.2
2023-05-05T05:44:58.000Z,12.5
2023-05-05T05:46:04.000Z,12.2
2023-05-05T05:47:10.000Z,13.2
2023-05-05T05:48:16.000Z,11.9
2023-05-05T05:49:22.000Z,12.5
2023-05-05T05:50:28.000Z,12.5
2023-05-05T05:51:34.000Z,11.6
2023-05-05T05:54:53.000Z,11.9
2023-05-05T05:55:59.000Z,12.8
2023-05-05T05:57:05.000Z,12.2
2023-05-05T05:58:11.000Z,12.5
2023-05-05T05:59:16.000Z,11.9
2023-05-05T06:00:22.000Z,10.9
2023-05-05T06:01:28.000Z,12.2
2023-05-05T06:02:34.000Z,11.6
2023-05-05T06:03:40.000Z,11.9
2023-05-05T06:04:46.000Z,12.2
2023-05-05T06:05:52.000Z,12.2
2023-05-05T06:08:05.000Z,11.9
2023-05-05T06:09:11.000Z,12.2
2023-05-05T06:11:23.000Z,11.6
2023-05-05T06:13:35.000Z,12.5
2023-05-05T06:14:40.000Z,11.9
2023-05-05T06:15:46.000Z,12.2
2023-05-05T06:16:52.000Z,11.9
2023-05-05T06:19:04.000Z,12.2
2023-05-05T06:20:11.000Z,12.2
2023-05-05T06:21:17.000Z,11.9
2023-05-05T06:22:23.000Z,12.2
2023-05-05T06:23:29.000Z,12.5
2023-05-05T06:24:35.000Z,12.8
2023-05-05T06:25:41.000Z,12.5
2023-05-05T06:26:47.000Z,11.6
2023-05-05T06:27:53.000Z,13.2
2023-05-05T06:28:59.000Z,12.8
2023-05-05T06:31:10.000Z,12.2
2023-05-05T06:32:16.000Z,12.2
2023-05-05T06:33:22.000Z,11.9
2023-05-05T06:34:28.000Z,11.9
2023-05-05T06:35:35.000Z,11.6
2023-05-05T06:36:41.000Z,12.2
2023-05-05T06:37:47.000Z,12.5
2023-05-05T06:39:59.000Z,12.8
2023-05-05T06:41:05.000Z,12.2
2023-05-05T06:42:11.000Z,11.6
2023-05-05T06:43:17.000Z,12.2
2023-05-05T06:44:23.000Z,12.2
2023-05-05T06:45:29.000Z,11.9
2023-05-05T06:46:34.000Z,11.2
2023-05-05T06:47:40.000Z,11.6
2023-05-05T06:48:46.000Z,11.9
2023-05-05T06:49:52.000Z,12.8
2023-05-05T06:50:59.000Z,12.2
2023-05-05T06:52:05.000Z,11.9
2023-05-05T06:53:11.000Z,11.6
2023-05-05T06:55:23.000Z,12.5
2023-05-05T06:56:29.000Z,13.2
2023-05-05T06:57:35.000Z,12.5
2023-05-05T06:58:41.000Z,12.5
2023-05-05T06:59:47.000Z,11.9
2023-05-05T07:00:52.000Z,12.2
2023-05-05T07:03:04.000Z,11.9
2023-05-05T07:04:11.000Z,11.9
2023-05-05T07:05:17.000Z,11.2
2023-05-05T07:06:23.000Z,12.2
2023-05-05T07:07:29.000Z,11.9
2023-05-05T07:08:35.000Z,12.5
2023-05-05T07:09:41.000Z,12.2
2023-05-05T07:10:47.000Z,11.9
2023-05-05T07:11:53.000Z,12.5
2023-05-05T07:15:11.000Z,12.2
2023-05-05T07:16:16.000Z,12.5
2023-05-05T07:17:22.000Z,12.5
2023-05-05T07:18:29.000Z,12.5
2023-05-05T07:19:35.000Z,12.2
2023-05-05T07:20:41.000Z,12.5
2023-05-05T07:21:47.000Z,12.2
2023-05-05T07:22:53.000Z,12.5
2023-05-05T07:23:59.000Z,11.9
2023-05-05T07:25:05.000Z,12.2
2023-05-05T07:26:11.000Z,11.9
2023-05-05T07:27:17.000Z,11.9
2023-05-05T07:28:23.000Z,12.8
2023-05-05T07:29:29.000Z,11.9
2023-05-05T07:30:34.000Z,12.5
2023-05-05T07:31:40.000Z,12.2
2023-05-05T07:33:53.000Z,11.2
2023-05-05T07:34:59.000Z,12.8
2023-05-05T07:36:05.000Z,12.2
2023-05-05T07:37:11.000Z,11.9
2023-05-05T07:38:16.000Z,11.6
2023-05-05T07:39:22.000Z,11.6
2023-05-05T07:40:27.000Z,11.9
2023-05-05T07:41:33.000Z,12.2
2023-05-05T07:42:39.000Z,12.2
2023-05-05T07:43:45.000Z,12.5
2023-05-05T07:44:51.000Z,12.5
2023-05-05T07:45:58.000Z,12.2
2023-05-05T07:47:04.000Z,11.6
2023-05-05T07:48:10.000Z,11.6
2023-05-05T07:49:16.000Z,12.5
2023-05-05T07:50:21.000Z,12.2
2023-05-05T07:51:26.000Z,11.9
2023-05-05T07:52:32.000Z,12.2
2023-05-05T07:53:38.000Z,12.2
2023-05-05T07:54:44.000Z,12.5
2023-05-05T07:55:50.000Z,11.9
2023-05-05T07:58:02.000Z,12.5
2023-05-05T07:59:08.000Z,12.2
2023-05-05T08:00:15.000Z,12.2
2023-05-05T08:01:21.000Z,13.2
2023-05-05T08:03:33.000Z,12.2
2023-05-05T08:04:38.000Z,12.2
2023-05-05T08:05:44.000Z,10.9
2023-05-05T08:06:50.000Z,13.2
2023-05-05T08:07:55.000Z,12.2
2023-05-05T08:09:01.000Z,11.9
2023-05-05T08:10:07.000Z,11.9
2023-05-05T08:11:13.000Z,12.5
2023-05-05T08:12:19.000Z,11.9
2023-05-05T08:13:25.000Z,11.9
2023-05-05T08:14:31.000Z,11.9
2023-05-05T08:15:38.000Z,11.9
2023-05-05T08:16:44.000Z,11.9
2023-05-05T08:18:55.000Z,12.2
2023-05-05T08:20:01.000Z,12.5
2023-05-05T08:21:06.000Z,11.2
2023-05-05T08:23:18.000Z,12.5
2023-05-05T08:24:23.000Z,11.9
2023-05-05T08:25:28.000Z,11.6
2023-05-05T08:26:34.000Z,11.9
2023-05-05T08:27:40.000Z,11.9
2023-05-05T08:28:46.000Z,11.6
2023-05-05T08:29:53.000Z,11.9
2023-05-05T08:30:59.000Z,12.5
2023-05-05T08:32:05.000Z,12.5
2023-05-05T08:33:11.000Z,13.5
2023-05-05T08:34:17.000Z,12.2
2023-05-05T08:35:23.000Z,12.5
2023-05-05T08:36:28.000Z,12.2
2023-05-05T08:37:33.000Z,13.5
2023-05-05T08:38:39.000Z,12.5
2023-05-05T08:39:45.000Z,12.5
2023-05-05T08:40:51.000Z,12.5
2023-05-05T08:41:57.000Z,12.5
2023-05-05T08:43:03.000Z,12.2
2023-05-05T08:44:10.000Z,12.8
2023-05-05T08:45:16.000Z,12.5
2023-05-05T08:46:22.000Z,12.8
2023-05-05T08:47:28.000Z,12.2
2023-05-05T08:48:33.000Z,11.9
2023-05-05T08:49:39.000Z,12.8
2023-05-05T08:50:44.000Z,12.2
2023-05-05T08:51:50.000Z,11.9
2023-05-05T08:52:56.000Z,12.8
2023-05-05T08:54:02.000Z,11.9
2023-05-05T08:55:08.000Z,12.5
2023-05-05T08:56:14.000Z,12.2
2023-05-05T08:57:20.000Z,11.9
2023-05-05T08:58:27.000Z,12.2
2023-05-05T09:00:39.000Z,12.2
2023-05-05T09:01:45.000Z,12.5
2023-05-05T09:03:57.000Z,11.6
2023-05-05T09:05:03.000Z,13.2
2023-05-05T09:06:09.000Z,12.2
2023-05-05T09:07:15.000Z,12.2
2023-05-05T09:08:21.000Z,12.8
2023-05-05T09:09:27.000Z,12.2
2023-05-05T09:10:33.000Z,12.5
2023-05-05T09:11:39.000Z,11.9
2023-05-05T09:12:44.000Z,12.2
2023-05-05T09:14:56.000Z,13.2
2023-05-05T09:16:02.000Z,11.6
2023-05-05T09:17:08.000Z,15.7
2023-05-05T09:18:14.000Z,12.5
2023-05-05T09:19:20.000Z,12.5
2023-05-05T09:20:26.000Z,11.6
2023-05-05T09:21:32.000Z,11.6
2023-05-05T09:22:38.000Z,12.2
2023-05-05T09:23:44.000Z,12.5
2023-05-05T09:24:50.000Z,12.5
2023-05-05T09:25:56.000Z,11.6
2023-05-05T09:27:02.000Z,13.2
2023-05-05T09:29:14.000Z,12.2
2023-05-05T09:30:19.000Z,12.2
2023-05-05T09:31:25.000Z,12.2
2023-05-05T09:32:30.000Z,11.9
2023-05-05T09:33:36.000Z,12.2
2023-05-05T09:35:48.000Z,12.5
2023-05-05T09:38:00.000Z,12.2
2023-05-05T09:39:06.000Z,13.2
2023-05-05T09:40:13.000Z,12.2
2023-05-05T09:41:19.000Z,12.5
2023-05-05T09:42:25.000Z,12.5
2023-05-05T09:43:31.000Z,12.5
2023-05-05T09:44:37.000Z,12.2
2023-05-05T09:46:49.000Z,12.5
2023-05-05T09:47:54.000Z,13.2
2023-05-05T09:49:00.000Z,12.8
2023-05-05T09:50:06.000Z,11.9
2023-05-05T09:51:12.000Z,12.2
2023-05-05T09:52:18.000Z,12.2
2023-05-05T09:53:25.000Z,12.8
2023-05-05T09:54:31.000Z,12.8
2023-05-05T09:55:37.000Z,12.5
2023-05-05T09:56:43.000Z,12.2
2023-05-05T09:58:55.000Z,12.2
2023-05-05T10:00:01.000Z,12.5
2023-05-05T10:01:07.000Z,12.2
2023-05-05T10:02:12.000Z,12.8
2023-05-05T10:03:18.000Z,12.5
2023-05-05T10:04:24.000Z,11.9
2023-05-05T10:05:30.000Z,12.8
2023-05-05T10:06:36.000Z,12.2
2023-05-05T10:07:43.000Z,12.8
2023-05-05T10:09:55.000Z,12.5
2023-05-05T10:12:07.000Z,13.2
2023-05-05T10:13:13.000Z,12.5
2023-05-05T10:14:19.000Z,12.5
2023-05-05T10:15:25.000Z,12.8
2023-05-05T10:16:30.000Z,12.5
2023-05-05T10:17:36.000Z,12.8
2023-05-05T10:18:42.000Z,12.5
2023-05-05T10:19:48.000Z,12.5
2023-05-05T10:20:54.000Z,13.5
2023-05-05T10:22:00.000Z,13.2
2023-05-05T10:24:13.000Z,12.8
2023-05-05T10:25:19.000Z,12.2
2023-05-05T10:26:25.000Z,11.9
2023-05-05T10:27:31.000Z,12.8
2023-05-05T10:28:37.000Z,12.8
2023-05-05T10:29:43.000Z,13.2
2023-05-05T10:30:48.000Z,12.8
2023-05-05T10:31:54.000Z,12.5
2023-05-05T10:33:00.000Z,13.5
2023-05-05T10:34:06.000Z,12.5
2023-05-05T10:35:12.000Z,12.8
2023-05-05T10:36:17.000Z,12.8
2023-05-05T10:37:23.000Z,12.5
2023-05-05T10:38:29.000Z,12.5
2023-05-05T10:39:35.000Z,13.2
2023-05-05T10:41:47.000Z,13.2
2023-05-05T10:42:53.000Z,12.5
2023-05-05T10:43:59.000Z,11.9
2023-05-05T10:45:05.000Z,12.8
2023-05-05T10:46:11.000Z,12.2
2023-05-05T10:48:23.000Z,12.5
2023-05-05T10:49:29.000Z,11.9
2023-05-05T10:50:35.000Z,12.5
2023-05-05T10:51:41.000Z,13.2
2023-05-05T10:53:53.000Z,13.8
2023-05-05T10:57:10.000Z,12.8
2023-05-05T10:58:15.000Z,12.5
2023-05-05T10:59:21.000Z,12.5
2023-05-05T11:00:26.000Z,12.8
2023-05-05T11:01:32.000Z,12.2
2023-05-05T11:04:51.000Z,12.8
2023-05-05T11:05:57.000Z,13.5
2023-05-05T11:07:03.000Z,12.5
2023-05-05T11:08:09.000Z,12.8
2023-05-05T11:09:15.000Z,12.5
2023-05-05T11:10:21.000Z,12.5
2023-05-05T11:11:27.000Z,12.2
2023-05-05T11:12:33.000Z,12.8
2023-05-05T11:13:39.000Z,12.5
2023-05-05T11:15:50.000Z,12.5
2023-05-05T11:16:56.000Z,12.8
2023-05-05T11:18:03.000Z,13.2
2023-05-05T11:19:09.000Z,12.8
2023-05-05T11:20:15.000Z,13.2
2023-05-05T11:21:21.000Z,12.8
2023-05-05T11:22:27.000Z,13.2
2023-05-05T11:23:33.000Z,13.5
2023-05-05T11:24:39.000Z,12.8
2023-05-05T11:25:45.000Z,13.5
2023-05-05T11:26:51.000Z,13.5
2023-05-05T11:27:57.000Z,12.2
2023-05-05T11:29:03.000Z,12.8
2023-05-05T11:31:15.000Z,13.5
2023-05-05T11:32:21.000Z,12.8
2023-05-05T11:33:27.000Z,13.2
2023-05-05T11:34:33.000Z,13.2
2023-05-05T11:36:45.000Z,13.2
2023-05-05T11:37:51.000Z,12.8
2023-05-05T11:38:57.000Z,12.8
2023-05-05T11:40:03.000Z,12.8
2023-05-05T11:41:09.000Z,13.5
2023-05-05T11:42:15.000Z,12.8
2023-05-05T11:43:21.000Z,12.8
2023-05-05T11:44:27.000Z,13.8
2023-05-05T11:45:33.000Z,13.2
2023-05-05T11:46:39.000Z,13.5
2023-05-05T11:48:51.000Z,12.8
2023-05-05T11:49:57.000Z,13.8
2023-05-05T11:51:03.000Z,13.5
2023-05-05T11:52:09.000Z,12.5
2023-05-05T11:53:15.000Z,13.5
2023-05-05T11:54:21.000Z,13.5
2023-05-05T11:55:27.000Z,12.8
2023-05-05T11:56:33.000Z,12.5
2023-05-05T11:57:39.000Z,13.5
2023-05-05T11:59:51.000Z,12.8
2023-05-05T12:00:58.000Z,12.8
2023-05-05T12:03:10.000Z,13.8
2023-05-05T12:04:16.000Z,13.5
2023-05-05T12:05:22.000Z,13.2
2023-05-05T12:06:28.000Z,13.5
2023-05-05T12:07:33.000Z,12.5
2023-05-05T12:08:39.000Z,13.2
2023-05-05T12:10:51.000Z,13.2
2023-05-05T12:13:03.000Z,13.5
2023-05-05T12:14:09.000Z,13.2
2023-05-05T12:15:16.000Z,12.8
2023-05-05T12:16:22.000Z,13.5
2023-05-05T12:17:28.000Z,13.2
2023-05-05T12:18:34.000Z,14.1
2023-05-05T12:19:40.000Z,12.8
2023-05-05T12:21:52.000Z,13.2
2023-05-05T12:22:57.000Z,13.2
2023-05-05T12:24:03.000Z,13.5
2023-05-05T12:25:09.000Z,13.5
2023-05-05T12:27:21.000Z,13.5
2023-05-05T12:29:33.000Z,13.5
2023-05-05T12:30:40.000Z,13.5
2023-05-05T12:32:52.000Z,13.8
2023-05-05T12:33:58.000Z,14.1
2023-05-05T12:35:04.000Z,13.5
2023-05-05T12:36:10.000Z,13.5
2023-05-05T12:37:16.000Z,13.2
2023-05-05T12:38:22.000Z,13.2
2023-05-05T12:39:27.000Z,13.5
2023-05-05T12:40:33.000Z,13.8
2023-05-05T12:41:39.000Z,13.2
2023-05-05T12:43:52.000Z,12.8
2023-05-05T12:44:58.000Z,13.5
2023-05-05T12:46:04.000Z,14.1
2023-05-05T12:47:10.000Z,12.8
2023-05-05T12:48:16.000Z,13.5
2023-05-05T12:49:22.000Z,13.5
2023-05-05T12:50:28.000Z,13.5
2023-05-05T12:53:46.000Z,13.2
2023-05-05T12:54:51.000Z,14.5
2023-05-05T12:55:57.000Z,13.5
2023-05-05T12:57:03.000Z,13.5
2023-05-05T12:58:10.000Z,13.2
2023-05-05T12:59:16.000Z,14.1
2023-05-05T13:00:22.000Z,13.2
2023-05-05T13:01:28.000Z,13.5
2023-05-05T13:02:34.000Z,14.1
2023-05-05T13:03:40.000Z,13.8
2023-05-05T13:04:46.000Z,13.5
2023-05-05T13:05:52.000Z,13.2
2023-05-05T13:06:58.000Z,13.5
2023-05-05T13:09:10.000Z,13.5
2023-05-05T13:10:16.000Z,14.1
2023-05-05T13:11:22.000Z,13.5
2023-05-05T13:13:34.000Z,13.2
2023-05-05T13:14:39.000Z,14.1
2023-05-05T13:15:45.000Z,13.2
2023-05-05T13:16:51.000Z,13.5
2023-05-05T13:17:57.000Z,14.1
2023-05-05T13:20:09.000Z,14.5
2023-05-05T13:21:15.000Z,13.8
2023-05-05T13:22:21.000Z,13.5
2023-05-05T13:23:27.000Z,13.5
2023-05-05T13:24:33.000Z,12.8
2023-05-05T13:25:39.000Z,14.1
2023-05-05T13:27:52.000Z,13.5
2023-05-05T13:28:57.000Z,13.8
2023-05-05T13:30:03.000Z,13.8
2023-05-05T13:31:09.000Z,13.8
2023-05-05T13:33:21.000Z,13.8
2023-05-05T13:34:27.000Z,13.5
2023-05-05T13:35:33.000Z,13.8
2023-05-05T13:38:51.000Z,13.2
2023-05-05T13:39:57.000Z,14.1
2023-05-05T13:41:03.000Z,13.8
2023-05-05T13:42:10.000Z,14.1
2023-05-05T13:43:16.000Z,15.1
2023-05-05T13:44:22.000Z,13.8
2023-05-05T13:47:39.000Z,13.8
2023-05-05T13:48:45.000Z,14.1
2023-05-05T13:49:51.000Z,13.5
2023-05-05T13:50:57.000Z,14.5
2023-05-05T13:52:03.000Z,14.1
2023-05-05T13:53:09.000Z,13.8
2023-05-05T13:54:15.000Z,13.8
2023-05-05T13:55:22.000Z,14.1
2023-05-05T13:56:28.000Z,14.1
2023-05-05T13:57:34.000Z,14.5
2023-05-05T13:58:40.000Z,13.8
2023-05-05T13:59:46.000Z,13.5
2023-05-05T14:00:51.000Z,13.8
2023-05-05T14:01:57.000Z,14.1
2023-05-05T14:03:03.000Z,14.1
2023-05-05T14:05:15.000Z,14.1
2023-05-05T14:06:21.000Z,14.1
2023-05-05T14:07:27.000Z,13.5
2023-05-05T14:08:33.000Z,13.8
2023-05-05T14:09:39.000Z,14.1
2023-05-05T14:11:51.000Z,14.5
2023-05-05T14:14:02.000Z,13.5
2023-05-05T14:15:08.000Z,14.1
2023-05-05T14:16:14.000Z,13.5
2023-05-05T14:17:20.000Z,13.8
2023-05-05T14:19:32.000Z,13.8
2023-05-05T14:22:51.000Z,13.8
2023-05-05T14:23:57.000Z,14.1
2023-05-05T14:25:03.000Z,14.5
2023-05-05T14:26:09.000Z,14.5
2023-05-05T14:27:14.000Z,13.5
2023-05-05T14:28:20.000Z,13.8
2023-05-05T14:29:26.000Z,14.8
2023-05-05T14:30:32.000Z,13.8
2023-05-05T14:31:38.000Z,14.5
2023-05-05T14:33:50.000Z,13.8
2023-05-05T14:34:56.000Z,13.8
2023-05-05T14:36:02.000Z,14.8
2023-05-05T14:37:08.000Z,14.1
2023-05-05T14:38:15.000Z,14.1
2023-05-05T14:39:21.000Z,14.1
2023-05-05T14:40:27.000Z,13.8
2023-05-05T14:41:32.000Z,14.1
2023-05-05T14:42:38.000Z,13.2
2023-05-05T14:43:44.000Z,14.5
2023-05-05T14:44:50.000Z,13.2
2023-05-05T14:45:55.000Z,13.8
2023-05-05T14:47:00.000Z,13.8
2023-05-05T14:48:06.000Z,14.1
2023-05-05T14:49:12.000Z,13.8
2023-05-05T14:50:18.000Z,14.1
2023-05-05T14:51:24.000Z,14.1
2023-05-05T14:52:31.000Z,13.8
2023-05-05T14:53:37.000Z,14.1
2023-05-05T14:54:43.000Z,13.8
2023-05-05T14:55:49.000Z,13.5
2023-05-05T14:56:55.000Z,14.1
2023-05-05T14:58:00.000Z,14.1
2023-05-05T14:59:05.000Z,14.1
2023-05-05T15:00:11.000Z,13.8
2023-05-05T15:01:17.000Z,14.5
2023-05-05T15:02:23.000Z,14.1
2023-05-05T15:03:30.000Z,13.8
2023-05-05T15:04:36.000Z,13.8
2023-05-05T15:05:42.000Z,14.5
2023-05-05T15:07:54.000Z,14.5
2023-05-05T15:09:00.000Z,13.8
2023-05-05T15:10:06.000Z,13.5
2023-05-05T15:11:12.000Z,14.1
2023-05-05T15:12:18.000Z,13.8
2023-05-05T15:13:23.000Z,14.5
2023-05-05T15:15:35.000Z,14.1
2023-05-05T15:16:40.000Z,14.1
2023-05-05T15:18:52.000Z,13.5
2023-05-05T15:19:58.000Z,14.8
2023-05-05T15:21:04.000Z,13.5
2023-05-05T15:22:10.000Z,14.5
2023-05-05T15:23:16.000Z,13.8
2023-05-05T15:24:22.000Z,14.1
2023-05-05T15:25:28.000Z,13.5
2023-05-05T15:26:34.000Z,14.5
2023-05-05T15:27:40.000Z,14.1
2023-05-05T15:28:46.000Z,14.1
2023-05-05T15:29:51.000Z,14.1
2023-05-05T15:30:57.000Z,14.5
2023-05-05T15:32:03.000Z,15.1
2023-05-05T15:33:09.000Z,13.8
2023-05-05T15:34:15.000Z,14.5
2023-05-05T15:35:21.000Z,14.1
2023-05-05T15:37:33.000Z,13.8
2023-05-05T15:39:45.000Z,13.5
2023-05-05T15:40:51.000Z,13.8
2023-05-05T15:41:57.000Z,13.8
2023-05-05T15:43:03.000Z,14.5
2023-05-05T15:44:08.000Z,14.1
2023-05-05T15:45:14.000Z,13.8
2023-05-05T15:46:20.000Z,13.5
2023-05-05T15:47:26.000Z,13.8
2023-05-05T15:48:32.000Z,13.5
2023-05-05T15:50:44.000Z,14.5
2023-05-05T15:51:50.000Z,14.8
2023-05-05T15:52:56.000Z,13.8
2023-05-05T15:54:02.000Z,14.1
2023-05-05T15:55:08.000Z,14.1
2023-05-05T15:56:14.000Z,14.1
2023-05-05T15:57:20.000Z,14.5
2023-05-05T15:58:26.000Z,14.5
2023-05-05T15:59:31.000Z,13.5
2023-05-05T16:00:38.000Z,13.2
2023-05-05T16:01:44.000Z,13.8
2023-05-05T16:02:50.000Z,14.1
2023-05-05T16:05:02.000Z,14.1
2023-05-05T16:06:07.000Z,14.1
2023-05-05T16:07:12.000Z,14.1
2023-05-05T16:08:18.000Z,14.1
2023-05-05T16:09:24.000Z,14.1
2023-05-05T16:10:30.000Z,13.8
2023-05-05T16:12:43.000Z,13.8
2023-05-05T16:13:49.000Z,14.1
2023-05-05T16:14:55.000Z,14.1
2023-05-05T16:16:01.000Z,13.5
2023-05-05T16:17:07.000Z,15.1
2023-05-05T16:18:13.000Z,13.2
2023-05-05T16:20:25.000Z,13.2
2023-05-05T16:22:36.000Z,13.8
2023-05-05T16:23:42.000Z,13.8
2023-05-05T16:24:48.000Z,13.2
2023-05-05T16:25:54.000Z,14.8
2023-05-05T16:27:00.000Z,13.8
2023-05-05T16:28:07.000Z,13.8